CSONT LPSO-LPSO
Flight info
| Callsign | CSONT |
|---|---|
| Flight time | 0h 14m |
| Altitude | 8000 |
| Route | NSA DCT VIS |
| Aircraft | PA24/L-SDGRY/S |
Departure
| Time | 2026-04-23 10:54 |
|---|---|
| Airport | Aeródromo Municipal de Ponte de Sor (LPSO) |
Arrival
| Time | 2026-04-23 11:08 |
|---|---|
| Airport | Aeródromo Municipal de Ponte de Sor (LPSO) |
| Time | Latitude | Longitude | Altitude | Speed | Heading |
|---|---|---|---|---|---|
| 2026-04-23 10:28 | 39.20964 | -8.05590 | 388 ft | 0 kts | 116° |
| 2026-04-23 10:48 | 39.20980 | -8.05587 | 388 ft | 7 kts | 309° |
| 2026-04-23 10:48 | 39.21023 | -8.05582 | 388 ft | 7 kts | 15° |
| 2026-04-23 10:49 | 39.21069 | -8.05558 | 388 ft | 7 kts | 25° |
| 2026-04-23 10:49 | 39.21110 | -8.05532 | 388 ft | 7 kts | 26° |
| 2026-04-23 10:49 | 39.21157 | -8.05519 | 388 ft | 7 kts | 318° |
| 2026-04-23 10:49 | 39.21190 | -8.05534 | 388 ft | 5 kts | 24° |
| 2026-04-23 10:50 | 39.21288 | -8.05476 | 388 ft | 27 kts | 28° |
| 2026-04-23 10:50 | 39.21438 | -8.05390 | 388 ft | 17 kts | 23° |
| 2026-04-23 10:50 | 39.21540 | -8.05331 | 388 ft | 15 kts | 23° |
| 2026-04-23 10:50 | 39.21630 | -8.05276 | 388 ft | 13 kts | 26° |
| 2026-04-23 10:51 | 39.21713 | -8.05253 | 388 ft | 12 kts | 1° |
| 2026-04-23 10:51 | 39.21789 | -8.05258 | 388 ft | 10 kts | 355° |
| 2026-04-23 10:51 | 39.21817 | -8.05262 | 388 ft | 0 kts | 354° |
| 2026-04-23 10:52 | 39.21853 | -8.05268 | 388 ft | 12 kts | 353° |
| 2026-04-23 10:52 | 39.21931 | -8.05319 | 388 ft | 11 kts | 282° |
| 2026-04-23 10:53 | 39.21914 | -8.05339 | 388 ft | 7 kts | 202° |
| 2026-04-23 10:53 | 39.21663 | -8.05486 | 388 ft | 68 kts | 201° |
| 2026-04-23 10:53 | 39.21156 | -8.05774 | 517 ft | 88 kts | 208° |
| 2026-04-23 10:53 | 39.20592 | -8.06110 | 688 ft | 91 kts | 208° |
| 2026-04-23 10:54 | 39.20007 | -8.06445 | 834 ft | 94 kts | 207° |
| 2026-04-23 10:54 | 39.19418 | -8.06789 | 1044 ft | 91 kts | 211° |
| 2026-04-23 10:54 | 39.19102 | -8.07460 | 1120 ft | 103 kts | 271° |
| 2026-04-23 10:54 | 39.19344 | -8.08367 | 1169 ft | 110 kts | 294° |
| 2026-04-23 10:55 | 39.19671 | -8.09263 | 1335 ft | 109 kts | 295° |
| 2026-04-23 10:55 | 39.20202 | -8.09958 | 1419 ft | 119 kts | 339° |
| 2026-04-23 10:55 | 39.21001 | -8.09704 | 1495 ft | 125 kts | 28° |
| 2026-04-23 10:55 | 39.21783 | -8.09116 | 1481 ft | 135 kts | 31° |
| 2026-04-23 10:56 | 39.22602 | -8.08476 | 1424 ft | 141 kts | 32° |
| 2026-04-23 10:56 | 39.23429 | -8.07807 | 1310 ft | 134 kts | 34° |
| 2026-04-23 10:56 | 39.24133 | -8.07177 | 1317 ft | 113 kts | 35° |
| 2026-04-23 10:56 | 39.24673 | -8.06564 | 1322 ft | 96 kts | 58° |
| 2026-04-23 10:57 | 39.24624 | -8.05781 | 1253 ft | 93 kts | 121° |
| 2026-04-23 10:57 | 39.24287 | -8.05070 | 1101 ft | 90 kts | 128° |
| 2026-04-23 10:57 | 39.23803 | -8.04603 | 964 ft | 90 kts | 166° |
| 2026-04-23 10:57 | 39.23151 | -8.04610 | 797 ft | 100 kts | 202° |
| 2026-04-23 10:58 | 39.22531 | -8.04985 | 592 ft | 96 kts | 207° |
| 2026-04-23 10:58 | 39.21933 | -8.05325 | 418 ft | 90 kts | 207° |
| 2026-04-23 10:58 | 39.21414 | -8.05624 | 388 ft | 72 kts | 208° |
| 2026-04-23 10:58 | 39.20998 | -8.05871 | 449 ft | 67 kts | 207° |
| 2026-04-23 10:59 | 39.20525 | -8.06135 | 562 ft | 81 kts | 206° |
| 2026-04-23 10:59 | 39.19961 | -8.06470 | 664 ft | 94 kts | 207° |
| 2026-04-23 10:59 | 39.19365 | -8.06828 | 852 ft | 95 kts | 224° |
| 2026-04-23 10:59 | 39.19388 | -8.07586 | 998 ft | 102 kts | 301° |
| 2026-04-23 11:00 | 39.19799 | -8.08403 | 1078 ft | 110 kts | 304° |
| 2026-04-23 11:00 | 39.20305 | -8.09088 | 1328 ft | 102 kts | 335° |
| 2026-04-23 11:00 | 39.20981 | -8.08810 | 1372 ft | 120 kts | 47° |
| 2026-04-23 11:00 | 39.21668 | -8.08155 | 1431 ft | 128 kts | 33° |
| 2026-04-23 11:01 | 39.22431 | -8.07472 | 1317 ft | 142 kts | 38° |
| 2026-04-23 11:01 | 39.23241 | -8.06822 | 1442 ft | 131 kts | 30° |
| 2026-04-23 11:01 | 39.24048 | -8.06203 | 1379 ft | 139 kts | 32° |
| 2026-04-23 11:01 | 39.24634 | -8.05298 | 1404 ft | 134 kts | 86° |
| 2026-04-23 11:02 | 39.24345 | -8.04260 | 1447 ft | 113 kts | 130° |
| 2026-04-23 11:02 | 39.23697 | -8.04187 | 1366 ft | 107 kts | 210° |
| 2026-04-23 11:02 | 39.23068 | -8.04663 | 992 ft | 97 kts | 211° |
| 2026-04-23 11:02 | 39.22471 | -8.05013 | 600 ft | 86 kts | 206° |
| 2026-04-23 11:03 | 39.21965 | -8.05307 | 420 ft | 75 kts | 208° |
| 2026-04-23 11:03 | 39.21538 | -8.05551 | 387 ft | 57 kts | 208° |
| 2026-04-23 11:03 | 39.21187 | -8.05752 | 404 ft | 64 kts | 205° |
| 2026-04-23 11:03 | 39.20737 | -8.06024 | 531 ft | 78 kts | 210° |
| 2026-04-23 11:04 | 39.20215 | -8.06391 | 692 ft | 93 kts | 211° |
| 2026-04-23 11:04 | 39.19619 | -8.06830 | 907 ft | 101 kts | 217° |
| 2026-04-23 11:04 | 39.19450 | -8.07599 | 1189 ft | 99 kts | 295° |
| 2026-04-23 11:04 | 39.19767 | -8.08413 | 1420 ft | 102 kts | 298° |
| 2026-04-23 11:05 | 39.20200 | -8.09213 | 1539 ft | 114 kts | 323° |
| 2026-04-23 11:05 | 39.21000 | -8.09097 | 1449 ft | 133 kts | 39° |
| 2026-04-23 11:05 | 39.21795 | -8.08548 | 1455 ft | 130 kts | 27° |
| 2026-04-23 11:05 | 39.22588 | -8.08010 | 1420 ft | 130 kts | 28° |
| 2026-04-23 11:06 | 39.24137 | -8.06781 | 1369 ft | 132 kts | 31° |
| 2026-04-23 11:06 | 39.24603 | -8.06004 | 1494 ft | 105 kts | 97° |
| 2026-04-23 11:06 | 39.24231 | -8.05164 | 1263 ft | 109 kts | 128° |
| 2026-04-23 11:07 | 39.23696 | -8.04599 | 1043 ft | 95 kts | 169° |
| 2026-04-23 11:07 | 39.23063 | -8.04659 | 773 ft | 90 kts | 203° |
| 2026-04-23 11:07 | 39.22503 | -8.04997 | 577 ft | 87 kts | 206° |
| 2026-04-23 11:07 | 39.21965 | -8.05306 | 415 ft | 82 kts | 208° |
| 2026-04-23 11:08 | 39.21520 | -8.05560 | 388 ft | 57 kts | 209° |
| 2026-04-23 11:08 | 39.21222 | -8.05739 | 389 ft | 41 kts | 203° |
| 2026-04-23 11:08 | 39.21000 | -8.05868 | 390 ft | 18 kts | 204° |
| 2026-04-23 11:08 | 39.20948 | -8.05814 | 389 ft | 11 kts | 111° |
| 2026-04-23 11:09 | 39.20915 | -8.05721 | 388 ft | 11 kts | 117° |
| 2026-04-23 11:09 | 39.20908 | -8.05639 | 388 ft | 7 kts | 85° |
| 2026-04-23 11:09 | 39.20905 | -8.05625 | 388 ft | 0 kts | 117° |